sensor_id;sensor_type;location;lat;lon;timestamp;temperature;humidity
36352;DHT22;22382;44.768;17.206;2024-01-11T00:00:39;-1.00;99.90
36352;DHT22;22382;44.768;17.206;2024-01-11T00:03:07;-1.10;99.90
36352;DHT22;22382;44.768;17.206;2024-01-11T00:05:34;-1.10;99.90
36352;DHT22;22382;44.768;17.206;2024-01-11T00:08:02;-1.10;99.90
36352;DHT22;22382;44.768;17.206;2024-01-11T00:10:29;-1.10;99.90
36352;DHT22;22382;44.768;17.206;2024-01-11T00:12:56;-1.10;99.90
36352;DHT22;22382;44.768;17.206;2024-01-11T00:15:24;-1.10;99.90
36352;DHT22;22382;44.768;17.206;2024-01-11T00:17:51;-1.20;99.90
36352;DHT22;22382;44.768;17.206;2024-01-11T00:20:18;-1.10;99.90
36352;DHT22;22382;44.768;17.206;2024-01-11T00:22:46;-1.20;99.90
36352;DHT22;22382;44.768;17.206;2024-01-11T00:25:13;-1.10;99.90
36352;DHT22;22382;44.768;17.206;2024-01-11T00:27:40;-1.10;99.90
36352;DHT22;22382;44.768;17.206;2024-01-11T00:30:08;-1.10;99.90
36352;DHT22;22382;44.768;17.206;2024-01-11T00:32:35;-1.10;99.90
36352;DHT22;22382;44.768;17.206;2024-01-11T00:35:03;-1.00;99.90
36352;DHT22;22382;44.768;17.206;2024-01-11T00:37:30;-1.00;99.90
36352;DHT22;22382;44.768;17.206;2024-01-11T00:39:57;-1.10;99.90
36352;DHT22;22382;44.768;17.206;2024-01-11T00:42:24;-1.10;99.90
36352;DHT22;22382;44.768;17.206;2024-01-11T00:44:51;-1.00;99.90
36352;DHT22;22382;44.768;17.206;2024-01-11T00:47:18;-1.00;99.90
36352;DHT22;22382;44.768;17.206;2024-01-11T00:49:46;-1.10;99.90
36352;DHT22;22382;44.768;17.206;2024-01-11T00:52:13;-1.00;99.90
36352;DHT22;22382;44.768;17.206;2024-01-11T00:54:40;-1.00;99.90
36352;DHT22;22382;44.768;17.206;2024-01-11T00:57:08;-1.20;99.90
36352;DHT22;22382;44.768;17.206;2024-01-11T00:59:35;-1.10;99.90
36352;DHT22;22382;44.768;17.206;2024-01-11T01:02:02;-1.10;99.90
36352;DHT22;22382;44.768;17.206;2024-01-11T01:04:29;-1.10;99.90
36352;DHT22;22382;44.768;17.206;2024-01-11T01:06:57;-1.10;99.90
36352;DHT22;22382;44.768;17.206;2024-01-11T01:09:24;-1.20;99.90
36352;DHT22;22382;44.768;17.206;2024-01-11T01:11:51;-1.20;99.90
36352;DHT22;22382;44.768;17.206;2024-01-11T01:14:18;-1.20;99.90
36352;DHT22;22382;44.768;17.206;2024-01-11T01:16:45;-1.20;99.90
36352;DHT22;22382;44.768;17.206;2024-01-11T01:19:12;-1.10;99.90
36352;DHT22;22382;44.768;17.206;2024-01-11T01:21:40;-1.10;99.90
36352;DHT22;22382;44.768;17.206;2024-01-11T01:24:07;-1.20;99.90
36352;DHT22;22382;44.768;17.206;2024-01-11T01:26:34;-1.20;99.90
36352;DHT22;22382;44.768;17.206;2024-01-11T01:29:02;-1.20;99.90
36352;DHT22;22382;44.768;17.206;2024-01-11T01:31:29;-1.20;99.90
36352;DHT22;22382;44.768;17.206;2024-01-11T01:33:56;-1.10;99.90
36352;DHT22;22382;44.768;17.206;2024-01-11T01:36:23;-1.20;99.90
36352;DHT22;22382;44.768;17.206;2024-01-11T01:38:50;-1.20;99.90
36352;DHT22;22382;44.768;17.206;2024-01-11T01:41:18;-1.20;99.90
36352;DHT22;22382;44.768;17.206;2024-01-11T01:43:45;-1.30;99.90
36352;DHT22;22382;44.768;17.206;2024-01-11T01:46:15;-1.30;99.90
36352;DHT22;22382;44.768;17.206;2024-01-11T01:48:46;-1.30;99.90
36352;DHT22;22382;44.768;17.206;2024-01-11T01:51:14;-1.30;99.90
36352;DHT22;22382;44.768;17.206;2024-01-11T01:53:41;-1.30;99.90
36352;DHT22;22382;44.768;17.206;2024-01-11T01:56:09;-1.30;99.90
36352;DHT22;22382;44.768;17.206;2024-01-11T01:58:36;-1.30;99.90
36352;DHT22;22382;44.768;17.206;2024-01-11T02:01:03;-1.30;99.90
36352;DHT22;22382;44.768;17.206;2024-01-11T02:03:34;-1.30;99.90
36352;DHT22;22382;44.768;17.206;2024-01-11T02:06:04;-1.30;99.90
36352;DHT22;22382;44.768;17.206;2024-01-11T02:08:34;-1.30;99.90
36352;DHT22;22382;44.768;17.206;2024-01-11T02:11:03;-1.30;99.90
36352;DHT22;22382;44.768;17.206;2024-01-11T02:13:32;-1.30;99.90
36352;DHT22;22382;44.768;17.206;2024-01-11T02:15:59;-1.30;99.90
36352;DHT22;22382;44.768;17.206;2024-01-11T02:18:26;-1.30;99.90
36352;DHT22;22382;44.768;17.206;2024-01-11T02:20:55;-1.30;99.90
36352;DHT22;22382;44.768;17.206;2024-01-11T02:23:24;-1.20;99.90
36352;DHT22;22382;44.768;17.206;2024-01-11T02:25:53;-1.20;99.90
36352;DHT22;22382;44.768;17.206;2024-01-11T02:28:20;-1.20;99.90
36352;DHT22;22382;44.768;17.206;2024-01-11T02:30:47;-1.10;99.90
36352;DHT22;22382;44.768;17.206;2024-01-11T02:33:15;-1.10;99.90
36352;DHT22;22382;44.768;17.206;2024-01-11T02:35:43;-1.20;99.90
36352;DHT22;22382;44.768;17.206;2024-01-11T02:38:14;-1.30;99.90
36352;DHT22;22382;44.768;17.206;2024-01-11T02:40:43;-1.30;99.90
36352;DHT22;22382;44.768;17.206;2024-01-11T02:43:11;-1.20;99.90
36352;DHT22;22382;44.768;17.206;2024-01-11T02:45:38;-1.20;99.90
36352;DHT22;22382;44.768;17.206;2024-01-11T02:48:05;-1.20;99.90
36352;DHT22;22382;44.768;17.206;2024-01-11T02:50:33;-1.20;99.90
36352;DHT22;22382;44.768;17.206;2024-01-11T02:53:00;-1.30;99.90
36352;DHT22;22382;44.768;17.206;2024-01-11T02:55:27;-1.40;99.90
36352;DHT22;22382;44.768;17.206;2024-01-11T02:57:54;-1.30;99.90
36352;DHT22;22382;44.768;17.206;2024-01-11T03:00:21;-1.30;99.90
36352;DHT22;22382;44.768;17.206;2024-01-11T03:02:49;-1.20;99.90
36352;DHT22;22382;44.768;17.206;2024-01-11T03:05:16;-1.20;99.90
36352;DHT22;22382;44.768;17.206;2024-01-11T03:07:43;-1.30;99.90
36352;DHT22;22382;44.768;17.206;2024-01-11T03:10:10;-1.30;99.90
36352;DHT22;22382;44.768;17.206;2024-01-11T03:12:39;-1.30;99.90
36352;DHT22;22382;44.768;17.206;2024-01-11T03:15:07;-1.40;99.90
36352;DHT22;22382;44.768;17.206;2024-01-11T03:17:34;-1.50;99.90
36352;DHT22;22382;44.768;17.206;2024-01-11T03:20:02;-1.50;99.90
36352;DHT22;22382;44.768;17.206;2024-01-11T03:22:31;-1.40;99.90
36352;DHT22;22382;44.768;17.206;2024-01-11T03:24:58;-1.40;99.90
36352;DHT22;22382;44.768;17.206;2024-01-11T03:27:26;-1.40;99.90
36352;DHT22;22382;44.768;17.206;2024-01-11T03:29:53;-1.30;99.90
36352;DHT22;22382;44.768;17.206;2024-01-11T03:32:20;-1.30;99.90
36352;DHT22;22382;44.768;17.206;2024-01-11T03:34:47;-1.30;99.90
36352;DHT22;22382;44.768;17.206;2024-01-11T03:37:14;-1.40;99.90
36352;DHT22;22382;44.768;17.206;2024-01-11T03:39:43;-1.40;99.90
36352;DHT22;22382;44.768;17.206;2024-01-11T03:42:10;-1.40;99.90
36352;DHT22;22382;44.768;17.206;2024-01-11T03:44:38;-1.40;99.90
36352;DHT22;22382;44.768;17.206;2024-01-11T03:47:05;-1.50;99.90
36352;DHT22;22382;44.768;17.206;2024-01-11T03:49:32;-1.40;99.90
36352;DHT22;22382;44.768;17.206;2024-01-11T03:51:59;-1.30;99.90
36352;DHT22;22382;44.768;17.206;2024-01-11T03:54:26;-1.40;99.90
36352;DHT22;22382;44.768;17.206;2024-01-11T03:56:54;-1.50;99.90
36352;DHT22;22382;44.768;17.206;2024-01-11T03:59:21;-1.50;99.90
36352;DHT22;22382;44.768;17.206;2024-01-11T04:01:48;-1.50;99.90
36352;DHT22;22382;44.768;17.206;2024-01-11T04:04:15;-1.60;99.90
36352;DHT22;22382;44.768;17.206;2024-01-11T04:06:43;-1.60;99.90
36352;DHT22;22382;44.768;17.206;2024-01-11T04:09:10;-1.60;99.90
36352;DHT22;22382;44.768;17.206;2024-01-11T04:11:37;-1.50;99.90
36352;DHT22;22382;44.768;17.206;2024-01-11T04:14:04;-1.50;99.90
36352;DHT22;22382;44.768;17.206;2024-01-11T04:16:32;-1.40;99.90
36352;DHT22;22382;44.768;17.206;2024-01-11T04:18:59;-1.40;99.90
36352;DHT22;22382;44.768;17.206;2024-01-11T04:21:27;-1.40;99.90
36352;DHT22;22382;44.768;17.206;2024-01-11T04:23:57;-1.40;99.90
36352;DHT22;22382;44.768;17.206;2024-01-11T04:26:25;-1.40;99.90
36352;DHT22;22382;44.768;17.206;2024-01-11T04:28:52;-1.40;99.90
36352;DHT22;22382;44.768;17.206;2024-01-11T04:31:23;-1.40;99.90
36352;DHT22;22382;44.768;17.206;2024-01-11T04:33:51;-1.50;99.90
36352;DHT22;22382;44.768;17.206;2024-01-11T04:36:18;-1.50;99.90
36352;DHT22;22382;44.768;17.206;2024-01-11T04:38:45;-1.50;99.90
36352;DHT22;22382;44.768;17.206;2024-01-11T04:41:13;-1.60;99.90
36352;DHT22;22382;44.768;17.206;2024-01-11T04:43:42;-1.60;99.90
36352;DHT22;22382;44.768;17.206;2024-01-11T04:46:20;-1.60;99.90
36352;DHT22;22382;44.768;17.206;2024-01-11T04:48:48;-1.60;99.90
36352;DHT22;22382;44.768;17.206;2024-01-11T04:51:17;-1.60;99.90
36352;DHT22;22382;44.768;17.206;2024-01-11T04:53:45;-1.60;99.90
36352;DHT22;22382;44.768;17.206;2024-01-11T04:56:16;-1.60;99.90
36352;DHT22;22382;44.768;17.206;2024-01-11T04:58:45;-1.50;99.90
36352;DHT22;22382;44.768;17.206;2024-01-11T05:01:16;-1.50;99.90
36352;DHT22;22382;44.768;17.206;2024-01-11T05:03:45;-1.60;99.90
36352;DHT22;22382;44.768;17.206;2024-01-11T05:06:19;-1.50;99.90
36352;DHT22;22382;44.768;17.206;2024-01-11T05:08:48;-1.60;99.90
36352;DHT22;22382;44.768;17.206;2024-01-11T05:11:20;-1.60;99.90
36352;DHT22;22382;44.768;17.206;2024-01-11T05:13:48;-1.50;99.90
36352;DHT22;22382;44.768;17.206;2024-01-11T05:18:45;-1.70;99.90
36352;DHT22;22382;44.768;17.206;2024-01-11T05:21:12;-1.70;99.90
36352;DHT22;22382;44.768;17.206;2024-01-11T05:23:42;-1.60;99.90
36352;DHT22;22382;44.768;17.206;2024-01-11T05:26:10;-1.60;99.90
36352;DHT22;22382;44.768;17.206;2024-01-11T05:28:37;-1.70;99.90
36352;DHT22;22382;44.768;17.206;2024-01-11T05:31:14;-1.60;99.90
36352;DHT22;22382;44.768;17.206;2024-01-11T05:33:45;-1.70;99.90
36352;DHT22;22382;44.768;17.206;2024-01-11T05:36:15;-1.80;99.90
36352;DHT22;22382;44.768;17.206;2024-01-11T05:38:42;-1.80;99.90
36352;DHT22;22382;44.768;17.206;2024-01-11T05:41:10;-1.90;99.90
36352;DHT22;22382;44.768;17.206;2024-01-11T05:43:37;-1.80;99.90
36352;DHT22;22382;44.768;17.206;2024-01-11T05:46:06;-1.90;99.90
36352;DHT22;22382;44.768;17.206;2024-01-11T05:48:34;-1.90;99.90
36352;DHT22;22382;44.768;17.206;2024-01-11T05:51:01;-1.90;99.90
36352;DHT22;22382;44.768;17.206;2024-01-11T05:53:28;-1.80;99.90
36352;DHT22;22382;44.768;17.206;2024-01-11T05:55:56;-1.80;99.90
36352;DHT22;22382;44.768;17.206;2024-01-11T05:58:23;-1.80;99.90
36352;DHT22;22382;44.768;17.206;2024-01-11T06:00:50;-1.70;99.90
36352;DHT22;22382;44.768;17.206;2024-01-11T06:03:17;-1.80;99.90
36352;DHT22;22382;44.768;17.206;2024-01-11T06:05:45;-1.70;99.90
36352;DHT22;22382;44.768;17.206;2024-01-11T06:08:12;-1.70;99.90
36352;DHT22;22382;44.768;17.206;2024-01-11T06:10:39;-1.70;99.90
36352;DHT22;22382;44.768;17.206;2024-01-11T06:13:07;-1.70;99.90
36352;DHT22;22382;44.768;17.206;2024-01-11T06:15:34;-1.70;99.90
36352;DHT22;22382;44.768;17.206;2024-01-11T06:18:02;-1.70;99.90
36352;DHT22;22382;44.768;17.206;2024-01-11T06:20:29;-1.70;99.90
36352;DHT22;22382;44.768;17.206;2024-01-11T06:22:56;-1.70;99.90
36352;DHT22;22382;44.768;17.206;2024-01-11T06:25:24;-1.60;99.90
36352;DHT22;22382;44.768;17.206;2024-01-11T06:27:51;-1.60;99.90
36352;DHT22;22382;44.768;17.206;2024-01-11T06:30:18;-1.50;99.90
36352;DHT22;22382;44.768;17.206;2024-01-11T06:32:45;-1.50;99.90
36352;DHT22;22382;44.768;17.206;2024-01-11T06:35:12;-1.50;99.90
36352;DHT22;22382;44.768;17.206;2024-01-11T06:37:40;-1.50;99.90
36352;DHT22;22382;44.768;17.206;2024-01-11T06:40:07;-1.50;99.90
36352;DHT22;22382;44.768;17.206;2024-01-11T06:42:35;-1.50;99.90
36352;DHT22;22382;44.768;17.206;2024-01-11T06:45:03;-1.40;99.90
36352;DHT22;22382;44.768;17.206;2024-01-11T06:47:30;-1.50;99.90
36352;DHT22;22382;44.768;17.206;2024-01-11T06:49:58;-1.50;99.90
36352;DHT22;22382;44.768;17.206;2024-01-11T06:52:26;-1.50;99.90
36352;DHT22;22382;44.768;17.206;2024-01-11T06:54:53;-1.40;99.90
36352;DHT22;22382;44.768;17.206;2024-01-11T06:57:21;-1.50;99.90
36352;DHT22;22382;44.768;17.206;2024-01-11T06:59:48;-1.50;99.90
36352;DHT22;22382;44.768;17.206;2024-01-11T07:02:16;-1.50;99.90
36352;DHT22;22382;44.768;17.206;2024-01-11T07:04:44;-1.40;99.90
36352;DHT22;22382;44.768;17.206;2024-01-11T07:07:12;-1.40;99.90
36352;DHT22;22382;44.768;17.206;2024-01-11T07:09:39;-1.40;99.90
36352;DHT22;22382;44.768;17.206;2024-01-11T07:12:06;-1.50;99.90
36352;DHT22;22382;44.768;17.206;2024-01-11T07:14:35;-1.50;99.90
36352;DHT22;22382;44.768;17.206;2024-01-11T07:17:02;-1.50;99.90
36352;DHT22;22382;44.768;17.206;2024-01-11T07:19:31;-1.50;99.90
36352;DHT22;22382;44.768;17.206;2024-01-11T07:21:58;-1.40;99.90
36352;DHT22;22382;44.768;17.206;2024-01-11T07:24:26;-1.40;99.90
36352;DHT22;22382;44.768;17.206;2024-01-11T07:26:53;-1.30;99.90
36352;DHT22;22382;44.768;17.206;2024-01-11T07:29:20;-1.30;99.90
36352;DHT22;22382;44.768;17.206;2024-01-11T07:31:48;-1.20;99.90
36352;DHT22;22382;44.768;17.206;2024-01-11T07:34:15;-1.30;99.90
36352;DHT22;22382;44.768;17.206;2024-01-11T07:36:42;-1.20;99.90
36352;DHT22;22382;44.768;17.206;2024-01-11T07:39:09;-1.20;99.90
36352;DHT22;22382;44.768;17.206;2024-01-11T07:41:36;-1.10;99.90
36352;DHT22;22382;44.768;17.206;2024-01-11T07:44:05;-1.00;99.90
36352;DHT22;22382;44.768;17.206;2024-01-11T07:46:32;-1.00;99.90
36352;DHT22;22382;44.768;17.206;2024-01-11T07:49:12;-1.00;99.90
36352;DHT22;22382;44.768;17.206;2024-01-11T07:51:39;-0.90;99.90
36352;DHT22;22382;44.768;17.206;2024-01-11T07:54:06;-0.90;99.90
36352;DHT22;22382;44.768;17.206;2024-01-11T07:56:33;-0.80;99.90
36352;DHT22;22382;44.768;17.206;2024-01-11T07:59:02;-0.80;99.90
36352;DHT22;22382;44.768;17.206;2024-01-11T08:01:29;-0.70;99.90
36352;DHT22;22382;44.768;17.206;2024-01-11T08:03:56;-0.60;99.90
36352;DHT22;22382;44.768;17.206;2024-01-11T08:06:24;-0.60;99.90
36352;DHT22;22382;44.768;17.206;2024-01-11T08:08:51;-0.70;99.90
36352;DHT22;22382;44.768;17.206;2024-01-11T08:11:19;-0.70;99.90
36352;DHT22;22382;44.768;17.206;2024-01-11T08:13:47;-0.60;99.90
36352;DHT22;22382;44.768;17.206;2024-01-11T08:16:17;-0.50;99.90
36352;DHT22;22382;44.768;17.206;2024-01-11T08:18:45;-0.40;99.90
36352;DHT22;22382;44.768;17.206;2024-01-11T08:21:13;-0.30;99.90
36352;DHT22;22382;44.768;17.206;2024-01-11T08:23:41;-0.30;99.90
36352;DHT22;22382;44.768;17.206;2024-01-11T08:26:15;-0.30;99.90
36352;DHT22;22382;44.768;17.206;2024-01-11T08:28:43;-0.10;99.90
36352;DHT22;22382;44.768;17.206;2024-01-11T08:31:10;0.00;99.90
36352;DHT22;22382;44.768;17.206;2024-01-11T08:33:37;0.00;99.90
36352;DHT22;22382;44.768;17.206;2024-01-11T08:36:05;0.00;99.90
36352;DHT22;22382;44.768;17.206;2024-01-11T08:38:34;0.00;99.90
36352;DHT22;22382;44.768;17.206;2024-01-11T08:41:03;0.00;99.90
36352;DHT22;22382;44.768;17.206;2024-01-11T08:43:30;0.00;99.90
36352;DHT22;22382;44.768;17.206;2024-01-11T08:45:58;0.00;99.90
36352;DHT22;22382;44.768;17.206;2024-01-11T08:48:26;-0.10;99.90
36352;DHT22;22382;44.768;17.206;2024-01-11T08:50:54;-0.20;99.90
36352;DHT22;22382;44.768;17.206;2024-01-11T08:53:21;-0.10;99.90
36352;DHT22;22382;44.768;17.206;2024-01-11T08:55:48;0.00;99.90
36352;DHT22;22382;44.768;17.206;2024-01-11T08:58:15;-0.10;99.90
36352;DHT22;22382;44.768;17.206;2024-01-11T09:00:43;-0.20;99.90
36352;DHT22;22382;44.768;17.206;2024-01-11T09:03:11;-0.20;99.90
36352;DHT22;22382;44.768;17.206;2024-01-11T09:05:41;0.00;99.90
36352;DHT22;22382;44.768;17.206;2024-01-11T09:08:08;0.10;99.90
36352;DHT22;22382;44.768;17.206;2024-01-11T09:10:35;0.10;99.90
36352;DHT22;22382;44.768;17.206;2024-01-11T09:13:03;0.20;99.90
36352;DHT22;22382;44.768;17.206;2024-01-11T09:15:30;0.40;99.90
36352;DHT22;22382;44.768;17.206;2024-01-11T09:17:58;0.50;99.90
36352;DHT22;22382;44.768;17.206;2024-01-11T09:20:27;0.60;99.90
36352;DHT22;22382;44.768;17.206;2024-01-11T09:22:54;0.70;99.90
36352;DHT22;22382;44.768;17.206;2024-01-11T09:25:21;0.80;99.90
36352;DHT22;22382;44.768;17.206;2024-01-11T09:27:50;0.80;99.90
36352;DHT22;22382;44.768;17.206;2024-01-11T09:30:18;0.90;99.90
36352;DHT22;22382;44.768;17.206;2024-01-11T09:32:45;0.80;99.90
36352;DHT22;22382;44.768;17.206;2024-01-11T09:35:13;0.80;99.90
36352;DHT22;22382;44.768;17.206;2024-01-11T09:37:42;0.60;99.90
36352;DHT22;22382;44.768;17.206;2024-01-11T09:40:12;0.60;99.90
36352;DHT22;22382;44.768;17.206;2024-01-11T09:42:40;0.70;99.90
36352;DHT22;22382;44.768;17.206;2024-01-11T09:45:09;0.70;99.90
36352;DHT22;22382;44.768;17.206;2024-01-11T09:47:37;0.70;99.90
36352;DHT22;22382;44.768;17.206;2024-01-11T09:50:06;0.70;99.90
36352;DHT22;22382;44.768;17.206;2024-01-11T09:52:34;0.80;99.90
36352;DHT22;22382;44.768;17.206;2024-01-11T09:55:03;0.80;99.90
36352;DHT22;22382;44.768;17.206;2024-01-11T09:57:31;0.80;99.90
36352;DHT22;22382;44.768;17.206;2024-01-11T10:00:04;0.80;99.90
36352;DHT22;22382;44.768;17.206;2024-01-11T10:02:34;0.80;99.90
36352;DHT22;22382;44.768;17.206;2024-01-11T10:05:01;1.00;99.90
36352;DHT22;22382;44.768;17.206;2024-01-11T10:07:30;1.10;99.90
36352;DHT22;22382;44.768;17.206;2024-01-11T10:10:00;1.20;99.90
36352;DHT22;22382;44.768;17.206;2024-01-11T10:12:28;1.20;99.90
36352;DHT22;22382;44.768;17.206;2024-01-11T10:14:55;1.20;99.90
36352;DHT22;22382;44.768;17.206;2024-01-11T10:17:31;1.20;99.90
36352;DHT22;22382;44.768;17.206;2024-01-11T10:19:59;1.30;99.90
36352;DHT22;22382;44.768;17.206;2024-01-11T10:22:28;1.30;99.90
36352;DHT22;22382;44.768;17.206;2024-01-11T10:25:12;1.40;99.90
36352;DHT22;22382;44.768;17.206;2024-01-11T10:27:44;1.30;99.90
36352;DHT22;22382;44.768;17.206;2024-01-11T10:30:13;1.30;99.90
36352;DHT22;22382;44.768;17.206;2024-01-11T10:32:43;1.20;99.90
36352;DHT22;22382;44.768;17.206;2024-01-11T10:35:11;0.90;99.90
36352;DHT22;22382;44.768;17.206;2024-01-11T10:37:38;1.10;99.90
36352;DHT22;22382;44.768;17.206;2024-01-11T10:40:07;1.00;99.90
36352;DHT22;22382;44.768;17.206;2024-01-11T10:42:42;1.10;99.90
36352;DHT22;22382;44.768;17.206;2024-01-11T10:45:16;1.20;99.90
36352;DHT22;22382;44.768;17.206;2024-01-11T10:47:54;1.40;99.90
36352;DHT22;22382;44.768;17.206;2024-01-11T10:50:23;1.60;99.90
36352;DHT22;22382;44.768;17.206;2024-01-11T10:53:04;1.60;99.90
36352;DHT22;22382;44.768;17.206;2024-01-11T10:55:36;1.80;99.90
36352;DHT22;22382;44.768;17.206;2024-01-11T10:58:05;1.70;99.90
36352;DHT22;22382;44.768;17.206;2024-01-11T11:00:34;1.80;99.90
36352;DHT22;22382;44.768;17.206;2024-01-11T11:03:03;1.70;99.90
36352;DHT22;22382;44.768;17.206;2024-01-11T11:05:35;1.70;99.90
36352;DHT22;22382;44.768;17.206;2024-01-11T11:08:04;1.60;99.90
36352;DHT22;22382;44.768;17.206;2024-01-11T11:10:34;1.60;99.90
36352;DHT22;22382;44.768;17.206;2024-01-11T11:13:02;1.40;99.90
36352;DHT22;22382;44.768;17.206;2024-01-11T11:15:31;1.40;99.90
36352;DHT22;22382;44.768;17.206;2024-01-11T11:17:59;1.60;99.90
36352;DHT22;22382;44.768;17.206;2024-01-11T11:20:28;1.60;99.90
36352;DHT22;22382;44.768;17.206;2024-01-11T11:23:08;1.70;99.90
36352;DHT22;22382;44.768;17.206;2024-01-11T11:25:37;1.90;99.90
36352;DHT22;22382;44.768;17.206;2024-01-11T11:28:07;2.00;99.90
36352;DHT22;22382;44.768;17.206;2024-01-11T11:30:38;2.00;99.90
36352;DHT22;22382;44.768;17.206;2024-01-11T11:33:17;1.40;99.90
36352;DHT22;22382;44.768;17.206;2024-01-11T11:35:55;1.50;99.90
36352;DHT22;22382;44.768;17.206;2024-01-11T11:38:26;1.70;99.90
36352;DHT22;22382;44.768;17.206;2024-01-11T11:40:59;1.70;99.90
36352;DHT22;22382;44.768;17.206;2024-01-11T11:43:28;1.90;99.90
36352;DHT22;22382;44.768;17.206;2024-01-11T11:45:57;2.00;99.90
36352;DHT22;22382;44.768;17.206;2024-01-11T11:53:47;2.10;99.90
36352;DHT22;22382;44.768;17.206;2024-01-11T11:56:19;2.10;99.90
36352;DHT22;22382;44.768;17.206;2024-01-11T11:58:48;2.10;99.90
36352;DHT22;22382;44.768;17.206;2024-01-11T12:01:17;2.00;99.90
36352;DHT22;22382;44.768;17.206;2024-01-11T12:03:45;2.10;99.90
36352;DHT22;22382;44.768;17.206;2024-01-11T12:06:18;2.10;99.90
36352;DHT22;22382;44.768;17.206;2024-01-11T12:08:47;2.00;99.90
36352;DHT22;22382;44.768;17.206;2024-01-11T12:11:18;2.30;99.90
36352;DHT22;22382;44.768;17.206;2024-01-11T12:13:47;2.30;99.90
36352;DHT22;22382;44.768;17.206;2024-01-11T12:16:15;2.20;99.10
36352;DHT22;22382;44.768;17.206;2024-01-11T12:18:42;2.00;99.90
36352;DHT22;22382;44.768;17.206;2024-01-11T12:21:09;2.00;99.90
36352;DHT22;22382;44.768;17.206;2024-01-11T12:23:38;2.10;99.90
36352;DHT22;22382;44.768;17.206;2024-01-11T12:26:07;2.10;99.90
36352;DHT22;22382;44.768;17.206;2024-01-11T12:28:41;2.10;99.30
36352;DHT22;22382;44.768;17.206;2024-01-11T12:31:09;2.00;99.30
36352;DHT22;22382;44.768;17.206;2024-01-11T12:33:37;1.90;99.40
36352;DHT22;22382;44.768;17.206;2024-01-11T12:36:06;1.90;99.20
36352;DHT22;22382;44.768;17.206;2024-01-11T12:38:35;1.90;99.90
36352;DHT22;22382;44.768;17.206;2024-01-11T12:41:04;2.00;99.50
36352;DHT22;22382;44.768;17.206;2024-01-11T12:43:32;1.90;99.60
36352;DHT22;22382;44.768;17.206;2024-01-11T12:46:02;1.90;99.10
36352;DHT22;22382;44.768;17.206;2024-01-11T12:48:29;1.60;99.70
36352;DHT22;22382;44.768;17.206;2024-01-11T12:50:58;1.40;99.90
36352;DHT22;22382;44.768;17.206;2024-01-11T12:53:45;1.40;99.90
36352;DHT22;22382;44.768;17.206;2024-01-11T12:56:15;1.40;99.90
36352;DHT22;22382;44.768;17.206;2024-01-11T12:58:43;1.50;99.90
36352;DHT22;22382;44.768;17.206;2024-01-11T13:01:10;1.40;99.90
36352;DHT22;22382;44.768;17.206;2024-01-11T13:03:39;1.20;99.90
36352;DHT22;22382;44.768;17.206;2024-01-11T13:06:10;1.10;99.90
36352;DHT22;22382;44.768;17.206;2024-01-11T13:08:39;1.10;99.90
36352;DHT22;22382;44.768;17.206;2024-01-11T13:11:10;1.00;99.90
36352;DHT22;22382;44.768;17.206;2024-01-11T13:13:41;0.70;99.90
36352;DHT22;22382;44.768;17.206;2024-01-11T13:16:08;0.60;99.90
36352;DHT22;22382;44.768;17.206;2024-01-11T13:18:38;0.70;99.90
36352;DHT22;22382;44.768;17.206;2024-01-11T13:21:05;0.80;99.90
36352;DHT22;22382;44.768;17.206;2024-01-11T13:23:36;0.90;99.90
36352;DHT22;22382;44.768;17.206;2024-01-11T13:26:06;1.00;99.90
36352;DHT22;22382;44.768;17.206;2024-01-11T13:28:33;0.90;99.90
36352;DHT22;22382;44.768;17.206;2024-01-11T13:31:01;0.80;99.90
36352;DHT22;22382;44.768;17.206;2024-01-11T13:33:29;0.80;99.90
36352;DHT22;22382;44.768;17.206;2024-01-11T13:35:57;0.80;99.90
36352;DHT22;22382;44.768;17.206;2024-01-11T13:38:24;0.70;99.90
36352;DHT22;22382;44.768;17.206;2024-01-11T13:40:52;0.70;99.90
36352;DHT22;22382;44.768;17.206;2024-01-11T13:43:19;0.80;99.90
36352;DHT22;22382;44.768;17.206;2024-01-11T13:45:47;0.90;99.90
36352;DHT22;22382;44.768;17.206;2024-01-11T13:48:14;0.90;99.90
36352;DHT22;22382;44.768;17.206;2024-01-11T13:50:41;0.90;99.90
36352;DHT22;22382;44.768;17.206;2024-01-11T13:53:09;0.80;99.90
36352;DHT22;22382;44.768;17.206;2024-01-11T13:55:36;0.80;99.90
36352;DHT22;22382;44.768;17.206;2024-01-11T13:58:08;0.70;99.90
36352;DHT22;22382;44.768;17.206;2024-01-11T14:00:35;0.70;99.90
36352;DHT22;22382;44.768;17.206;2024-01-11T14:03:03;0.70;99.90
36352;DHT22;22382;44.768;17.206;2024-01-11T14:05:33;0.60;99.90
36352;DHT22;22382;44.768;17.206;2024-01-11T14:08:00;0.50;99.90
36352;DHT22;22382;44.768;17.206;2024-01-11T14:10:32;0.30;99.90
36352;DHT22;22382;44.768;17.206;2024-01-11T14:13:00;0.40;99.90
36352;DHT22;22382;44.768;17.206;2024-01-11T14:15:28;0.40;99.90
36352;DHT22;22382;44.768;17.206;2024-01-11T14:17:55;0.40;99.90
36352;DHT22;22382;44.768;17.206;2024-01-11T14:20:22;0.50;99.90
36352;DHT22;22382;44.768;17.206;2024-01-11T14:22:50;0.30;99.90
36352;DHT22;22382;44.768;17.206;2024-01-11T14:25:21;0.40;99.90
36352;DHT22;22382;44.768;17.206;2024-01-11T14:27:48;0.40;99.90
36352;DHT22;22382;44.768;17.206;2024-01-11T14:30:16;0.10;99.90
36352;DHT22;22382;44.768;17.206;2024-01-11T14:32:44;0.20;99.90
36352;DHT22;22382;44.768;17.206;2024-01-11T14:35:12;0.30;99.90
36352;DHT22;22382;44.768;17.206;2024-01-11T14:37:41;0.30;99.90
36352;DHT22;22382;44.768;17.206;2024-01-11T14:40:09;0.40;99.90
36352;DHT22;22382;44.768;17.206;2024-01-11T14:42:39;0.40;99.90
36352;DHT22;22382;44.768;17.206;2024-01-11T14:45:07;0.40;99.90
36352;DHT22;22382;44.768;17.206;2024-01-11T14:47:35;0.50;99.90
36352;DHT22;22382;44.768;17.206;2024-01-11T14:50:03;0.50;99.90
36352;DHT22;22382;44.768;17.206;2024-01-11T14:52:38;0.50;99.90
36352;DHT22;22382;44.768;17.206;2024-01-11T14:55:08;0.50;99.90
36352;DHT22;22382;44.768;17.206;2024-01-11T14:57:38;0.50;99.90
36352;DHT22;22382;44.768;17.206;2024-01-11T15:00:07;0.40;99.90
36352;DHT22;22382;44.768;17.206;2024-01-11T15:02:35;0.40;99.90
36352;DHT22;22382;44.768;17.206;2024-01-11T15:05:02;0.20;99.90
36352;DHT22;22382;44.768;17.206;2024-01-11T15:07:31;0.20;99.90
36352;DHT22;22382;44.768;17.206;2024-01-11T15:09:59;0.30;99.90
36352;DHT22;22382;44.768;17.206;2024-01-11T15:12:27;0.30;99.90
36352;DHT22;22382;44.768;17.206;2024-01-11T15:14:54;0.30;99.90
36352;DHT22;22382;44.768;17.206;2024-01-11T15:17:21;0.20;99.90
36352;DHT22;22382;44.768;17.206;2024-01-11T15:19:49;0.20;99.90
36352;DHT22;22382;44.768;17.206;2024-01-11T15:22:16;0.30;99.90
36352;DHT22;22382;44.768;17.206;2024-01-11T15:24:43;0.20;99.90
36352;DHT22;22382;44.768;17.206;2024-01-11T15:27:10;0.10;99.90
36352;DHT22;22382;44.768;17.206;2024-01-11T15:29:38;0.00;99.90
36352;DHT22;22382;44.768;17.206;2024-01-11T15:32:09;0.00;99.90
36352;DHT22;22382;44.768;17.206;2024-01-11T15:34:37;0.00;99.90
36352;DHT22;22382;44.768;17.206;2024-01-11T15:37:05;0.00;99.90